sensor_id;sensor_type;location;lat;lon;timestamp;P1;durP1;ratioP1;P2;durP2;ratioP2
67160;SDS011;54088;52.238;21.104;2022-11-20T00:00:54;53.97;;;28.65;;
67160;SDS011;54088;52.238;21.104;2022-11-20T00:03:19;50.58;;;27.58;;
67160;SDS011;54088;52.238;21.104;2022-11-20T00:05:45;55.80;;;28.50;;
67160;SDS011;54088;52.238;21.104;2022-11-20T00:08:11;53.38;;;28.52;;
67160;SDS011;54088;52.238;21.104;2022-11-20T00:10:37;53.38;;;28.05;;
67160;SDS011;54088;52.238;21.104;2022-11-20T00:13:03;52.13;;;27.65;;
67160;SDS011;54088;52.238;21.104;2022-11-20T00:15:29;54.72;;;29.77;;
67160;SDS011;54088;52.238;21.104;2022-11-20T00:17:55;50.92;;;28.50;;
67160;SDS011;54088;52.238;21.104;2022-11-20T00:20:21;51.80;;;27.90;;
67160;SDS011;54088;52.238;21.104;2022-11-20T00:22:47;51.22;;;27.55;;
67160;SDS011;54088;52.238;21.104;2022-11-20T00:25:12;52.97;;;28.75;;
67160;SDS011;54088;52.238;21.104;2022-11-20T00:27:38;53.42;;;29.25;;
67160;SDS011;54088;52.238;21.104;2022-11-20T00:30:04;59.40;;;30.02;;
67160;SDS011;54088;52.238;21.104;2022-11-20T00:32:32;60.60;;;32.75;;
67160;SDS011;54088;52.238;21.104;2022-11-20T00:34:57;55.03;;;26.48;;
67160;SDS011;54088;52.238;21.104;2022-11-20T00:37:23;60.22;;;31.08;;
67160;SDS011;54088;52.238;21.104;2022-11-20T00:39:48;55.63;;;29.83;;
67160;SDS011;54088;52.238;21.104;2022-11-20T00:42:14;55.40;;;28.88;;
67160;SDS011;54088;52.238;21.104;2022-11-20T00:44:40;54.22;;;30.10;;
67160;SDS011;54088;52.238;21.104;2022-11-20T00:47:05;54.22;;;28.65;;
67160;SDS011;54088;52.238;21.104;2022-11-20T00:49:31;55.50;;;30.40;;
67160;SDS011;54088;52.238;21.104;2022-11-20T00:51:57;52.53;;;29.40;;
67160;SDS011;54088;52.238;21.104;2022-11-20T00:54:22;57.38;;;30.40;;
67160;SDS011;54088;52.238;21.104;2022-11-20T00:56:48;54.95;;;27.70;;
67160;SDS011;54088;52.238;21.104;2022-11-20T00:59:14;55.30;;;30.20;;
67160;SDS011;54088;52.238;21.104;2022-11-20T01:01:39;54.60;;;29.35;;
67160;SDS011;54088;52.238;21.104;2022-11-20T01:04:05;55.05;;;30.17;;
67160;SDS011;54088;52.238;21.104;2022-11-20T01:06:34;51.05;;;27.35;;
67160;SDS011;54088;52.238;21.104;2022-11-20T01:09:10;56.78;;;30.25;;
67160;SDS011;54088;52.238;21.104;2022-11-20T01:11:39;57.60;;;28.77;;
67160;SDS011;54088;52.238;21.104;2022-11-20T01:14:07;55.73;;;29.03;;
67160;SDS011;54088;52.238;21.104;2022-11-20T01:16:37;55.47;;;27.57;;
67160;SDS011;54088;52.238;21.104;2022-11-20T01:19:05;54.22;;;29.73;;
67160;SDS011;54088;52.238;21.104;2022-11-20T01:21:35;51.47;;;28.35;;
67160;SDS011;54088;52.238;21.104;2022-11-20T01:24:02;57.67;;;29.35;;
67160;SDS011;54088;52.238;21.104;2022-11-20T01:26:30;52.63;;;29.67;;
67160;SDS011;54088;52.238;21.104;2022-11-20T01:28:58;54.83;;;30.27;;
67160;SDS011;54088;52.238;21.104;2022-11-20T01:31:31;53.95;;;29.63;;
67160;SDS011;54088;52.238;21.104;2022-11-20T01:33:59;55.20;;;30.08;;
67160;SDS011;54088;52.238;21.104;2022-11-20T01:36:27;53.80;;;30.10;;
67160;SDS011;54088;52.238;21.104;2022-11-20T01:38:54;55.40;;;30.23;;
67160;SDS011;54088;52.238;21.104;2022-11-20T01:41:22;55.63;;;29.92;;
67160;SDS011;54088;52.238;21.104;2022-11-20T01:44:08;53.00;;;30.00;;
67160;SDS011;54088;52.238;21.104;2022-11-20T01:46:36;55.22;;;29.67;;
67160;SDS011;54088;52.238;21.104;2022-11-20T01:51:55;58.85;;;31.73;;
67160;SDS011;54088;52.238;21.104;2022-11-20T01:56:56;52.45;;;28.33;;
67160;SDS011;54088;52.238;21.104;2022-11-20T01:59:24;57.22;;;29.95;;
67160;SDS011;54088;52.238;21.104;2022-11-20T02:01:52;48.90;;;25.92;;
67160;SDS011;54088;52.238;21.104;2022-11-20T02:04:18;54.33;;;28.98;;
67160;SDS011;54088;52.238;21.104;2022-11-20T02:06:56;54.17;;;27.45;;
67160;SDS011;54088;52.238;21.104;2022-11-20T02:09:29;50.40;;;26.67;;
67160;SDS011;54088;52.238;21.104;2022-11-20T02:11:55;55.47;;;28.05;;
67160;SDS011;54088;52.238;21.104;2022-11-20T02:14:22;54.85;;;28.38;;
67160;SDS011;54088;52.238;21.104;2022-11-20T02:16:49;54.13;;;28.05;;
67160;SDS011;54088;52.238;21.104;2022-11-20T02:19:28;51.67;;;28.95;;
67160;SDS011;54088;52.238;21.104;2022-11-20T02:24:24;54.97;;;28.48;;
67160;SDS011;54088;52.238;21.104;2022-11-20T02:27:01;54.22;;;28.10;;
67160;SDS011;54088;52.238;21.104;2022-11-20T02:32:04;54.47;;;29.08;;
67160;SDS011;54088;52.238;21.104;2022-11-20T02:34:30;51.70;;;29.73;;
67160;SDS011;54088;52.238;21.104;2022-11-20T02:36:56;54.72;;;28.42;;
67160;SDS011;54088;52.238;21.104;2022-11-20T02:39:24;49.65;;;25.75;;
67160;SDS011;54088;52.238;21.104;2022-11-20T02:41:55;49.30;;;28.40;;
67160;SDS011;54088;52.238;21.104;2022-11-20T02:44:21;51.13;;;28.30;;
67160;SDS011;54088;52.238;21.104;2022-11-20T02:46:47;54.08;;;28.20;;
67160;SDS011;54088;52.238;21.104;2022-11-20T02:49:13;49.63;;;26.88;;
67160;SDS011;54088;52.238;21.104;2022-11-20T02:51:38;56.70;;;26.70;;
67160;SDS011;54088;52.238;21.104;2022-11-20T02:54:04;49.92;;;27.35;;
67160;SDS011;54088;52.238;21.104;2022-11-20T02:56:30;50.63;;;27.80;;
67160;SDS011;54088;52.238;21.104;2022-11-20T02:58:56;56.00;;;27.98;;
67160;SDS011;54088;52.238;21.104;2022-11-20T03:01:22;55.70;;;28.65;;
67160;SDS011;54088;52.238;21.104;2022-11-20T03:03:48;56.60;;;28.98;;
67160;SDS011;54088;52.238;21.104;2022-11-20T03:06:14;49.45;;;26.98;;
67160;SDS011;54088;52.238;21.104;2022-11-20T03:08:41;54.30;;;27.65;;
67160;SDS011;54088;52.238;21.104;2022-11-20T03:11:08;55.20;;;29.95;;
67160;SDS011;54088;52.238;21.104;2022-11-20T03:13:34;50.17;;;28.17;;
67160;SDS011;54088;52.238;21.104;2022-11-20T03:16:07;55.33;;;30.58;;
67160;SDS011;54088;52.238;21.104;2022-11-20T03:18:38;55.35;;;27.77;;
67160;SDS011;54088;52.238;21.104;2022-11-20T03:21:04;53.33;;;30.20;;
67160;SDS011;54088;52.238;21.104;2022-11-20T03:23:31;56.28;;;28.95;;
67160;SDS011;54088;52.238;21.104;2022-11-20T03:26:17;47.78;;;27.25;;
67160;SDS011;54088;52.238;21.104;2022-11-20T03:29:17;51.17;;;27.23;;
67160;SDS011;54088;52.238;21.104;2022-11-20T03:31:36;53.78;;;29.52;;
67160;SDS011;54088;52.238;21.104;2022-11-20T03:34:05;55.27;;;27.37;;
67160;SDS011;54088;52.238;21.104;2022-11-20T03:36:31;51.75;;;27.65;;
67160;SDS011;54088;52.238;21.104;2022-11-20T03:38:57;55.47;;;29.45;;
67160;SDS011;54088;52.238;21.104;2022-11-20T03:41:27;55.85;;;28.00;;
67160;SDS011;54088;52.238;21.104;2022-11-20T03:43:58;53.85;;;30.08;;
67160;SDS011;54088;52.238;21.104;2022-11-20T03:46:25;52.00;;;27.45;;
67160;SDS011;54088;52.238;21.104;2022-11-20T03:48:52;53.17;;;26.48;;
67160;SDS011;54088;52.238;21.104;2022-11-20T03:51:20;57.17;;;30.75;;
67160;SDS011;54088;52.238;21.104;2022-11-20T03:53:50;47.70;;;23.63;;
67160;SDS011;54088;52.238;21.104;2022-11-20T03:56:18;60.90;;;29.80;;
67160;SDS011;54088;52.238;21.104;2022-11-20T03:58:47;47.42;;;25.60;;
67160;SDS011;54088;52.238;21.104;2022-11-20T04:01:13;57.70;;;29.33;;
67160;SDS011;54088;52.238;21.104;2022-11-20T04:03:41;54.88;;;26.50;;
67160;SDS011;54088;52.238;21.104;2022-11-20T04:06:12;56.35;;;29.67;;
67160;SDS011;54088;52.238;21.104;2022-11-20T04:08:40;53.88;;;27.67;;
67160;SDS011;54088;52.238;21.104;2022-11-20T04:11:14;48.97;;;27.05;;
67160;SDS011;54088;52.238;21.104;2022-11-20T04:13:41;54.67;;;29.85;;
67160;SDS011;54088;52.238;21.104;2022-11-20T04:16:10;54.03;;;29.33;;
67160;SDS011;54088;52.238;21.104;2022-11-20T04:18:36;52.83;;;27.60;;
67160;SDS011;54088;52.238;21.104;2022-11-20T04:21:02;56.67;;;29.02;;
67160;SDS011;54088;52.238;21.104;2022-11-20T04:23:28;51.47;;;27.58;;
67160;SDS011;54088;52.238;21.104;2022-11-20T04:25:54;54.20;;;27.77;;
67160;SDS011;54088;52.238;21.104;2022-11-20T04:28:20;51.92;;;26.48;;
67160;SDS011;54088;52.238;21.104;2022-11-20T04:30:45;55.90;;;28.65;;
67160;SDS011;54088;52.238;21.104;2022-11-20T04:33:11;50.92;;;28.58;;
67160;SDS011;54088;52.238;21.104;2022-11-20T04:35:37;49.05;;;25.00;;
67160;SDS011;54088;52.238;21.104;2022-11-20T04:38:03;50.25;;;25.88;;
67160;SDS011;54088;52.238;21.104;2022-11-20T04:40:29;52.90;;;27.30;;
67160;SDS011;54088;52.238;21.104;2022-11-20T04:42:55;53.63;;;27.77;;
67160;SDS011;54088;52.238;21.104;2022-11-20T04:45:22;52.47;;;26.20;;
67160;SDS011;54088;52.238;21.104;2022-11-20T04:47:48;52.42;;;28.40;;
67160;SDS011;54088;52.238;21.104;2022-11-20T04:50:14;49.72;;;25.55;;
67160;SDS011;54088;52.238;21.104;2022-11-20T04:52:39;50.88;;;27.23;;
67160;SDS011;54088;52.238;21.104;2022-11-20T04:55:05;49.35;;;26.00;;
67160;SDS011;54088;52.238;21.104;2022-11-20T04:57:31;50.03;;;27.02;;
67160;SDS011;54088;52.238;21.104;2022-11-20T04:59:57;53.08;;;27.00;;
67160;SDS011;54088;52.238;21.104;2022-11-20T05:02:23;47.65;;;24.90;;
67160;SDS011;54088;52.238;21.104;2022-11-20T05:04:48;53.40;;;27.65;;
67160;SDS011;54088;52.238;21.104;2022-11-20T05:07:14;48.00;;;25.48;;
67160;SDS011;54088;52.238;21.104;2022-11-20T05:09:40;51.80;;;25.65;;
67160;SDS011;54088;52.238;21.104;2022-11-20T05:12:07;44.63;;;24.77;;
67160;SDS011;54088;52.238;21.104;2022-11-20T05:14:33;49.22;;;26.65;;
67160;SDS011;54088;52.238;21.104;2022-11-20T05:16:59;50.53;;;26.08;;
67160;SDS011;54088;52.238;21.104;2022-11-20T05:19:24;46.60;;;27.75;;
67160;SDS011;54088;52.238;21.104;2022-11-20T05:21:50;47.05;;;24.75;;
67160;SDS011;54088;52.238;21.104;2022-11-20T05:24:16;49.22;;;25.48;;
67160;SDS011;54088;52.238;21.104;2022-11-20T05:26:41;47.85;;;25.58;;
67160;SDS011;54088;52.238;21.104;2022-11-20T05:29:09;52.25;;;27.02;;
67160;SDS011;54088;52.238;21.104;2022-11-20T05:34:04;46.35;;;26.80;;
67160;SDS011;54088;52.238;21.104;2022-11-20T05:36:30;48.33;;;25.52;;
67160;SDS011;54088;52.238;21.104;2022-11-20T05:38:56;48.53;;;25.92;;
67160;SDS011;54088;52.238;21.104;2022-11-20T05:41:21;51.20;;;28.35;;
67160;SDS011;54088;52.238;21.104;2022-11-20T05:43:47;45.25;;;23.58;;
67160;SDS011;54088;52.238;21.104;2022-11-20T05:46:15;49.22;;;26.20;;
67160;SDS011;54088;52.238;21.104;2022-11-20T05:48:43;47.75;;;24.95;;
67160;SDS011;54088;52.238;21.104;2022-11-20T05:51:10;49.25;;;25.50;;
67160;SDS011;54088;52.238;21.104;2022-11-20T05:53:38;52.05;;;25.95;;
67160;SDS011;54088;52.238;21.104;2022-11-20T05:56:05;47.78;;;24.98;;
67160;SDS011;54088;52.238;21.104;2022-11-20T05:58:35;49.83;;;25.02;;
67160;SDS011;54088;52.238;21.104;2022-11-20T06:01:09;51.28;;;26.92;;
67160;SDS011;54088;52.238;21.104;2022-11-20T06:03:40;49.90;;;25.33;;
67160;SDS011;54088;52.238;21.104;2022-11-20T06:06:07;46.38;;;25.13;;
67160;SDS011;54088;52.238;21.104;2022-11-20T06:08:33;47.03;;;24.05;;
67160;SDS011;54088;52.238;21.104;2022-11-20T06:11:03;51.83;;;26.25;;
67160;SDS011;54088;52.238;21.104;2022-11-20T06:13:33;45.83;;;25.20;;
67160;SDS011;54088;52.238;21.104;2022-11-20T06:15:59;50.58;;;24.80;;
67160;SDS011;54088;52.238;21.104;2022-11-20T06:18:26;45.33;;;24.58;;
67160;SDS011;54088;52.238;21.104;2022-11-20T06:21:06;48.33;;;24.73;;
67160;SDS011;54088;52.238;21.104;2022-11-20T06:23:34;49.25;;;26.65;;
67160;SDS011;54088;52.238;21.104;2022-11-20T06:26:01;49.63;;;25.98;;
67160;SDS011;54088;52.238;21.104;2022-11-20T06:28:28;43.00;;;24.13;;
67160;SDS011;54088;52.238;21.104;2022-11-20T06:30:54;45.33;;;24.35;;
67160;SDS011;54088;52.238;21.104;2022-11-20T06:33:19;49.40;;;25.40;;
67160;SDS011;54088;52.238;21.104;2022-11-20T06:35:45;44.17;;;26.42;;
67160;SDS011;54088;52.238;21.104;2022-11-20T06:38:11;47.33;;;25.05;;
67160;SDS011;54088;52.238;21.104;2022-11-20T06:40:39;49.17;;;24.13;;
67160;SDS011;54088;52.238;21.104;2022-11-20T06:43:05;51.20;;;27.52;;
67160;SDS011;54088;52.238;21.104;2022-11-20T06:45:31;48.55;;;26.45;;
67160;SDS011;54088;52.238;21.104;2022-11-20T06:47:57;47.38;;;25.92;;
67160;SDS011;54088;52.238;21.104;2022-11-20T06:50:23;50.55;;;26.92;;
67160;SDS011;54088;52.238;21.104;2022-11-20T06:52:49;48.00;;;27.55;;
67160;SDS011;54088;52.238;21.104;2022-11-20T06:55:14;50.17;;;28.10;;
67160;SDS011;54088;52.238;21.104;2022-11-20T06:57:40;50.85;;;25.52;;
67160;SDS011;54088;52.238;21.104;2022-11-20T07:00:05;47.95;;;26.63;;
67160;SDS011;54088;52.238;21.104;2022-11-20T07:02:32;52.88;;;27.33;;
67160;SDS011;54088;52.238;21.104;2022-11-20T07:04:57;53.85;;;28.65;;
67160;SDS011;54088;52.238;21.104;2022-11-20T07:07:23;50.53;;;26.27;;
67160;SDS011;54088;52.238;21.104;2022-11-20T07:09:49;52.13;;;27.83;;
67160;SDS011;54088;52.238;21.104;2022-11-20T07:12:14;50.13;;;27.55;;
67160;SDS011;54088;52.238;21.104;2022-11-20T07:14:40;49.97;;;26.95;;
67160;SDS011;54088;52.238;21.104;2022-11-20T07:17:06;47.70;;;28.13;;
67160;SDS011;54088;52.238;21.104;2022-11-20T07:19:31;57.20;;;30.40;;
67160;SDS011;54088;52.238;21.104;2022-11-20T07:21:57;52.38;;;28.60;;
67160;SDS011;54088;52.238;21.104;2022-11-20T07:24:23;48.65;;;27.10;;
67160;SDS011;54088;52.238;21.104;2022-11-20T07:26:48;51.35;;;27.67;;
67160;SDS011;54088;52.238;21.104;2022-11-20T07:29:14;52.08;;;27.08;;
67160;SDS011;54088;52.238;21.104;2022-11-20T07:31:41;49.80;;;27.30;;
67160;SDS011;54088;52.238;21.104;2022-11-20T07:34:08;49.42;;;28.05;;
67160;SDS011;54088;52.238;21.104;2022-11-20T07:36:33;50.92;;;28.00;;
67160;SDS011;54088;52.238;21.104;2022-11-20T07:38:59;44.83;;;27.10;;
67160;SDS011;54088;52.238;21.104;2022-11-20T07:41:25;49.97;;;26.50;;
67160;SDS011;54088;52.238;21.104;2022-11-20T07:43:51;48.33;;;27.48;;
67160;SDS011;54088;52.238;21.104;2022-11-20T07:46:16;50.95;;;26.27;;
67160;SDS011;54088;52.238;21.104;2022-11-20T07:48:42;47.33;;;26.65;;
67160;SDS011;54088;52.238;21.104;2022-11-20T07:51:07;51.03;;;27.77;;
67160;SDS011;54088;52.238;21.104;2022-11-20T07:53:33;53.15;;;29.75;;
67160;SDS011;54088;52.238;21.104;2022-11-20T07:55:59;48.83;;;28.70;;
67160;SDS011;54088;52.238;21.104;2022-11-20T07:58:26;48.05;;;27.77;;
67160;SDS011;54088;52.238;21.104;2022-11-20T08:00:54;46.88;;;28.33;;
67160;SDS011;54088;52.238;21.104;2022-11-20T08:03:20;47.38;;;26.73;;
67160;SDS011;54088;52.238;21.104;2022-11-20T08:05:46;47.65;;;27.75;;
67160;SDS011;54088;52.238;21.104;2022-11-20T08:08:12;45.67;;;27.77;;
67160;SDS011;54088;52.238;21.104;2022-11-20T08:10:37;45.55;;;27.15;;
67160;SDS011;54088;52.238;21.104;2022-11-20T08:13:03;43.10;;;25.63;;
67160;SDS011;54088;52.238;21.104;2022-11-20T08:15:48;41.42;;;25.15;;
67160;SDS011;54088;52.238;21.104;2022-11-20T08:18:16;44.33;;;26.25;;
67160;SDS011;54088;52.238;21.104;2022-11-20T08:20:42;47.40;;;26.52;;
67160;SDS011;54088;52.238;21.104;2022-11-20T08:23:08;39.75;;;24.80;;
67160;SDS011;54088;52.238;21.104;2022-11-20T08:25:34;45.88;;;27.67;;
67160;SDS011;54088;52.238;21.104;2022-11-20T08:28:02;38.47;;;22.77;;
67160;SDS011;54088;52.238;21.104;2022-11-20T08:30:30;39.22;;;23.13;;
67160;SDS011;54088;52.238;21.104;2022-11-20T08:33:00;40.10;;;24.08;;
67160;SDS011;54088;52.238;21.104;2022-11-20T08:35:28;40.88;;;24.15;;
67160;SDS011;54088;52.238;21.104;2022-11-20T08:37:57;40.75;;;24.98;;
67160;SDS011;54088;52.238;21.104;2022-11-20T08:40:22;36.90;;;22.88;;
67160;SDS011;54088;52.238;21.104;2022-11-20T08:42:49;38.70;;;24.05;;
67160;SDS011;54088;52.238;21.104;2022-11-20T08:45:16;38.50;;;23.77;;
67160;SDS011;54088;52.238;21.104;2022-11-20T08:47:42;41.15;;;24.80;;
67160;SDS011;54088;52.238;21.104;2022-11-20T08:50:09;40.92;;;24.75;;
67160;SDS011;54088;52.238;21.104;2022-11-20T08:52:35;39.75;;;24.15;;
67160;SDS011;54088;52.238;21.104;2022-11-20T08:55:01;37.75;;;25.40;;
67160;SDS011;54088;52.238;21.104;2022-11-20T08:57:27;41.85;;;25.58;;
67160;SDS011;54088;52.238;21.104;2022-11-20T08:59:53;39.95;;;27.20;;
67160;SDS011;54088;52.238;21.104;2022-11-20T09:02:18;38.97;;;25.40;;
67160;SDS011;54088;52.238;21.104;2022-11-20T09:04:45;40.42;;;25.75;;
67160;SDS011;54088;52.238;21.104;2022-11-20T09:07:10;41.30;;;26.05;;
67160;SDS011;54088;52.238;21.104;2022-11-20T09:09:37;44.10;;;26.35;;
67160;SDS011;54088;52.238;21.104;2022-11-20T09:12:02;39.33;;;26.40;;
67160;SDS011;54088;52.238;21.104;2022-11-20T09:14:28;45.30;;;25.08;;
67160;SDS011;54088;52.238;21.104;2022-11-20T09:16:55;40.58;;;28.02;;
67160;SDS011;54088;52.238;21.104;2022-11-20T09:19:21;40.53;;;26.83;;
67160;SDS011;54088;52.238;21.104;2022-11-20T09:21:48;44.85;;;26.85;;
67160;SDS011;54088;52.238;21.104;2022-11-20T09:24:13;46.33;;;25.33;;
67160;SDS011;54088;52.238;21.104;2022-11-20T09:26:39;41.30;;;26.83;;
67160;SDS011;54088;52.238;21.104;2022-11-20T09:29:05;44.95;;;29.83;;
67160;SDS011;54088;52.238;21.104;2022-11-20T09:31:30;41.30;;;27.65;;
67160;SDS011;54088;52.238;21.104;2022-11-20T09:33:56;40.78;;;26.63;;
67160;SDS011;54088;52.238;21.104;2022-11-20T09:36:22;40.33;;;27.25;;
67160;SDS011;54088;52.238;21.104;2022-11-20T09:38:47;43.13;;;27.33;;
67160;SDS011;54088;52.238;21.104;2022-11-20T09:42:00;40.45;;;26.65;;
67160;SDS011;54088;52.238;21.104;2022-11-20T09:45:10;38.92;;;25.25;;
67160;SDS011;54088;52.238;21.104;2022-11-20T09:50:19;39.25;;;25.38;;
67160;SDS011;54088;52.238;21.104;2022-11-20T09:55:27;42.42;;;25.95;;
67160;SDS011;54088;52.238;21.104;2022-11-20T09:57:55;43.10;;;27.50;;
67160;SDS011;54088;52.238;21.104;2022-11-20T10:00:24;41.70;;;25.80;;
67160;SDS011;54088;52.238;21.104;2022-11-20T10:05:52;44.53;;;27.17;;
67160;SDS011;54088;52.238;21.104;2022-11-20T10:08:23;41.85;;;25.67;;
67160;SDS011;54088;52.238;21.104;2022-11-20T10:27:49;44.15;;;27.40;;
67160;SDS011;54088;52.238;21.104;2022-11-20T10:30:29;40.63;;;25.93;;
67160;SDS011;54088;52.238;21.104;2022-11-20T10:33:03;42.08;;;25.38;;
67160;SDS011;54088;52.238;21.104;2022-11-20T10:35:50;40.65;;;24.60;;
67160;SDS011;54088;52.238;21.104;2022-11-20T10:38:36;40.42;;;25.65;;
67160;SDS011;54088;52.238;21.104;2022-11-20T10:41:04;38.90;;;24.63;;
67160;SDS011;54088;52.238;21.104;2022-11-20T10:43:51;42.78;;;26.95;;
67160;SDS011;54088;52.238;21.104;2022-11-20T10:46:23;38.78;;;24.70;;
67160;SDS011;54088;52.238;21.104;2022-11-20T10:48:49;43.58;;;25.58;;
67160;SDS011;54088;52.238;21.104;2022-11-20T10:56:22;40.95;;;23.48;;
67160;SDS011;54088;52.238;21.104;2022-11-20T10:59:10;39.90;;;24.73;;
67160;SDS011;54088;52.238;21.104;2022-11-20T11:01:55;41.22;;;24.63;;
67160;SDS011;54088;52.238;21.104;2022-11-20T11:06:53;39.65;;;25.02;;
67160;SDS011;54088;52.238;21.104;2022-11-20T11:09:49;45.10;;;28.65;;
67160;SDS011;54088;52.238;21.104;2022-11-20T11:12:17;46.22;;;27.52;;
67160;SDS011;54088;52.238;21.104;2022-11-20T11:14:51;43.65;;;26.70;;
67160;SDS011;54088;52.238;21.104;2022-11-20T11:17:23;39.60;;;25.77;;
67160;SDS011;54088;52.238;21.104;2022-11-20T11:20:00;40.92;;;25.92;;
67160;SDS011;54088;52.238;21.104;2022-11-20T11:22:56;40.85;;;25.60;;
67160;SDS011;54088;52.238;21.104;2022-11-20T11:30:29;44.85;;;27.63;;
67160;SDS011;54088;52.238;21.104;2022-11-20T11:33:05;43.15;;;26.30;;
67160;SDS011;54088;52.238;21.104;2022-11-20T11:35:38;40.73;;;26.30;;
67160;SDS011;54088;52.238;21.104;2022-11-20T11:38:22;40.33;;;24.80;;
67160;SDS011;54088;52.238;21.104;2022-11-20T11:40:48;42.90;;;25.48;;
67160;SDS011;54088;52.238;21.104;2022-11-20T11:43:19;42.03;;;26.33;;
67160;SDS011;54088;52.238;21.104;2022-11-20T11:46:09;42.47;;;25.55;;
67160;SDS011;54088;52.238;21.104;2022-11-20T11:49:34;39.42;;;24.83;;
67160;SDS011;54088;52.238;21.104;2022-11-20T11:51:47;38.45;;;24.75;;
67160;SDS011;54088;52.238;21.104;2022-11-20T11:54:25;41.80;;;25.60;;
67160;SDS011;54088;52.238;21.104;2022-11-20T11:56:52;45.63;;;26.65;;
67160;SDS011;54088;52.238;21.104;2022-11-20T11:59:43;44.58;;;26.50;;
67160;SDS011;54088;52.238;21.104;2022-11-20T12:02:25;42.50;;;26.20;;
67160;SDS011;54088;52.238;21.104;2022-11-20T12:05:02;42.92;;;25.63;;
67160;SDS011;54088;52.238;21.104;2022-11-20T12:07:48;41.60;;;26.83;;
67160;SDS011;54088;52.238;21.104;2022-11-20T12:16:35;40.88;;;24.30;;
67160;SDS011;54088;52.238;21.104;2022-11-20T12:19:03;42.17;;;25.52;;
67160;SDS011;54088;52.238;21.104;2022-11-20T12:27:21;41.42;;;24.77;;
67160;SDS011;54088;52.238;21.104;2022-11-20T12:44:04;44.72;;;25.00;;
67160;SDS011;54088;52.238;21.104;2022-11-20T12:47:19;39.60;;;23.02;;
67160;SDS011;54088;52.238;21.104;2022-11-20T12:50:12;39.08;;;24.25;;
67160;SDS011;54088;52.238;21.104;2022-11-20T12:58:12;39.95;;;24.65;;
67160;SDS011;54088;52.238;21.104;2022-11-20T13:01:21;41.47;;;24.70;;
67160;SDS011;54088;52.238;21.104;2022-11-20T13:04:06;45.95;;;26.58;;
67160;SDS011;54088;52.238;21.104;2022-11-20T13:06:34;41.17;;;24.63;;
67160;SDS011;54088;52.238;21.104;2022-11-20T13:09:00;40.00;;;24.02;;
67160;SDS011;54088;52.238;21.104;2022-11-20T13:11:32;43.58;;;26.45;;
67160;SDS011;54088;52.238;21.104;2022-11-20T13:16:58;46.90;;;26.73;;
67160;SDS011;54088;52.238;21.104;2022-11-20T13:19:30;40.65;;;25.63;;
67160;SDS011;54088;52.238;21.104;2022-11-20T13:21:57;40.75;;;24.88;;
67160;SDS011;54088;52.238;21.104;2022-11-20T13:24:24;42.03;;;25.08;;
67160;SDS011;54088;52.238;21.104;2022-11-20T13:29:36;42.45;;;25.90;;
67160;SDS011;54088;52.238;21.104;2022-11-20T13:34:29;42.55;;;24.58;;
67160;SDS011;54088;52.238;21.104;2022-11-20T13:36:56;41.95;;;26.02;;
67160;SDS011;54088;52.238;21.104;2022-11-20T13:39:32;43.63;;;27.75;;
67160;SDS011;54088;52.238;21.104;2022-11-20T13:42:00;43.80;;;25.70;;
67160;SDS011;54088;52.238;21.104;2022-11-20T13:44:42;39.88;;;25.20;;
67160;SDS011;54088;52.238;21.104;2022-11-20T13:50:13;40.25;;;24.33;;
67160;SDS011;54088;52.238;21.104;2022-11-20T13:52:50;41.63;;;24.60;;
67160;SDS011;54088;52.238;21.104;2022-11-20T14:01:28;43.47;;;24.85;;
67160;SDS011;54088;52.238;21.104;2022-11-20T14:03:56;42.40;;;25.42;;
67160;SDS011;54088;52.238;21.104;2022-11-20T14:06:29;39.92;;;24.23;;
67160;SDS011;54088;52.238;21.104;2022-11-20T14:08:57;46.85;;;26.17;;
67160;SDS011;54088;52.238;21.104;2022-11-20T14:11:33;40.17;;;24.23;;
67160;SDS011;54088;52.238;21.104;2022-11-20T14:14:13;46.72;;;26.92;;
67160;SDS011;54088;52.238;21.104;2022-11-20T14:16:44;43.28;;;25.70;;
67160;SDS011;54088;52.238;21.104;2022-11-20T14:19:23;40.33;;;25.33;;
67160;SDS011;54088;52.238;21.104;2022-11-20T14:22:09;45.30;;;25.63;;
67160;SDS011;54088;52.238;21.104;2022-11-20T14:24:42;43.60;;;26.98;;
67160;SDS011;54088;52.238;21.104;2022-11-20T14:27:16;47.30;;;26.50;;
67160;SDS011;54088;52.238;21.104;2022-11-20T14:29:46;46.45;;;25.77;;
67160;SDS011;54088;52.238;21.104;2022-11-20T14:32:15;42.92;;;26.63;;
67160;SDS011;54088;52.238;21.104;2022-11-20T14:34:46;43.47;;;25.25;;
67160;SDS011;54088;52.238;21.104;2022-11-20T14:37:21;46.00;;;27.08;;
67160;SDS011;54088;52.238;21.104;2022-11-20T14:39:51;46.88;;;26.80;;
67160;SDS011;54088;52.238;21.104;2022-11-20T14:42:20;49.03;;;27.00;;
67160;SDS011;54088;52.238;21.104;2022-11-20T14:44:52;44.95;;;26.85;;
67160;SDS011;54088;52.238;21.104;2022-11-20T14:47:22;48.35;;;27.90;;
67160;SDS011;54088;52.238;21.104;2022-11-20T14:49:54;44.05;;;26.08;;
67160;SDS011;54088;52.238;21.104;2022-11-20T14:52:24;48.67;;;29.67;;
67160;SDS011;54088;52.238;21.104;2022-11-20T14:54:52;50.88;;;28.90;;
67160;SDS011;54088;52.238;21.104;2022-11-20T14:57:22;46.88;;;28.00;;
67160;SDS011;54088;52.238;21.104;2022-11-20T15:00:05;47.58;;;26.90;;
67160;SDS011;54088;52.238;21.104;2022-11-20T15:02:47;48.17;;;26.85;;
67160;SDS011;54088;52.238;21.104;2022-11-20T15:05:15;50.92;;;30.15;;
67160;SDS011;54088;52.238;21.104;2022-11-20T15:07:44;50.53;;;29.42;;
67160;SDS011;54088;52.238;21.104;2022-11-20T15:18:13;47.65;;;27.92;;
67160;SDS011;54088;52.238;21.104;2022-11-20T15:20:41;56.10;;;31.23;;
67160;SDS011;54088;52.238;21.104;2022-11-20T15:23:11;48.63;;;29.42;;
67160;SDS011;54088;52.238;21.104;2022-11-20T15:25:39;50.90;;;29.20;;
67160;SDS011;54088;52.238;21.104;2022-11-20T15:28:19;49.28;;;28.17;;
67160;SDS011;54088;52.238;21.104;2022-11-20T15:30:48;53.00;;;30.35;;
67160;SDS011;54088;52.238;21.104;2022-11-20T15:33:15;48.83;;;28.50;;
67160;SDS011;54088;52.238;21.104;2022-11-20T15:35:42;50.90;;;29.73;;
67160;SDS011;54088;52.238;21.104;2022-11-20T15:38:08;48.60;;;26.73;;
67160;SDS011;54088;52.238;21.104;2022-11-20T15:40:34;49.78;;;28.13;;
67160;SDS011;54088;52.238;21.104;2022-11-20T15:43:00;46.67;;;26.50;;
67160;SDS011;54088;52.238;21.104;2022-11-20T15:45:29;44.60;;;26.23;;
67160;SDS011;54088;52.238;21.104;2022-11-20T15:48:02;48.55;;;27.35;;
67160;SDS011;54088;52.238;21.104;2022-11-20T15:50:41;47.67;;;26.77;;
67160;SDS011;54088;52.238;21.104;2022-11-20T15:53:21;45.25;;;26.48;;
67160;SDS011;54088;52.238;21.104;2022-11-20T15:55:47;42.70;;;25.75;;
67160;SDS011;54088;52.238;21.104;2022-11-20T15:58:12;45.05;;;27.35;;
67160;SDS011;54088;52.238;21.104;2022-11-20T16:00:38;43.97;;;24.58;;
67160;SDS011;54088;52.238;21.104;2022-11-20T16:03:04;46.80;;;26.90;;
67160;SDS011;54088;52.238;21.104;2022-11-20T16:05:30;46.80;;;27.13;;
67160;SDS011;54088;52.238;21.104;2022-11-20T16:07:55;42.58;;;25.05;;
67160;SDS011;54088;52.238;21.104;2022-11-20T16:10:22;40.90;;;25.48;;